sensor_id;sensor_type;location;lat;lon;timestamp;pressure;altitude;pressure_sealevel;temperature;humidity
70930;BME280;58588;48.102;19.682;2023-12-04T00:00:02;100284.91;;;-5.04;93.74
70930;BME280;58588;48.102;19.682;2023-12-04T00:03:04;100277.56;;;-4.96;92.67
70930;BME280;58588;48.102;19.682;2023-12-04T00:06:22;100279.88;;;-5.08;93.98
70930;BME280;58588;48.102;19.682;2023-12-04T00:09:24;100287.91;;;-4.93;93.78
70930;BME280;58588;48.102;19.682;2023-12-04T00:12:27;100288.13;;;-4.97;92.60
70930;BME280;58588;48.102;19.682;2023-12-04T00:15:31;100290.69;;;-4.96;92.18
70930;BME280;58588;48.102;19.682;2023-12-04T00:18:33;100284.41;;;-5.12;91.53
70930;BME280;58588;48.102;19.682;2023-12-04T00:21:36;100288.28;;;-5.21;93.00
70930;BME280;58588;48.102;19.682;2023-12-04T00:24:41;100284.47;;;-5.34;92.52
70930;BME280;58588;48.102;19.682;2023-12-04T00:27:43;100280.00;;;-5.12;92.83
70930;BME280;58588;48.102;19.682;2023-12-04T00:30:44;100288.59;;;-5.28;92.64
70930;BME280;58588;48.102;19.682;2023-12-04T00:33:46;100289.22;;;-5.22;93.13
70930;BME280;58588;48.102;19.682;2023-12-04T00:36:50;100291.19;;;-5.27;93.53
70930;BME280;58588;48.102;19.682;2023-12-04T00:39:52;100297.03;;;-5.20;93.58
70930;BME280;58588;48.102;19.682;2023-12-04T00:43:05;100288.81;;;-5.13;94.73
70930;BME280;58588;48.102;19.682;2023-12-04T00:46:07;100291.09;;;-5.05;93.81
70930;BME280;58588;48.102;19.682;2023-12-04T00:49:09;100292.56;;;-5.18;93.20
70930;BME280;58588;48.102;19.682;2023-12-04T00:52:12;100293.94;;;-5.09;92.56
70930;BME280;58588;48.102;19.682;2023-12-04T00:55:14;100300.19;;;-5.32;93.05
70930;BME280;58588;48.102;19.682;2023-12-04T00:58:16;100294.41;;;-5.20;93.00
70930;BME280;58588;48.102;19.682;2023-12-04T01:01:18;100292.09;;;-5.07;92.75
70930;BME280;58588;48.102;19.682;2023-12-04T01:04:20;100292.69;;;-5.21;91.90
70930;BME280;58588;48.102;19.682;2023-12-04T01:07:23;100293.50;;;-5.40;92.03
70930;BME280;58588;48.102;19.682;2023-12-04T01:10:25;100300.97;;;-5.30;90.74
70930;BME280;58588;48.102;19.682;2023-12-04T01:13:27;100304.91;;;-5.41;91.63
70930;BME280;58588;48.102;19.682;2023-12-04T01:16:28;100302.09;;;-5.36;92.22
70930;BME280;58588;48.102;19.682;2023-12-04T01:19:31;100300.63;;;-5.43;91.94
70930;BME280;58588;48.102;19.682;2023-12-04T01:22:34;100298.13;;;-5.46;91.92
70930;BME280;58588;48.102;19.682;2023-12-04T01:25:36;100300.91;;;-5.49;92.42
70930;BME280;58588;48.102;19.682;2023-12-04T01:28:38;100301.56;;;-5.44;92.09
70930;BME280;58588;48.102;19.682;2023-12-04T01:31:40;100295.31;;;-5.42;91.63
70930;BME280;58588;48.102;19.682;2023-12-04T01:34:42;100289.06;;;-5.59;91.35
70930;BME280;58588;48.102;19.682;2023-12-04T01:37:45;100284.22;;;-5.48;91.09
70930;BME280;58588;48.102;19.682;2023-12-04T01:40:47;100295.44;;;-5.65;91.30
70930;BME280;58588;48.102;19.682;2023-12-04T01:43:49;100294.56;;;-5.66;91.95
70930;BME280;58588;48.102;19.682;2023-12-04T01:46:51;100295.81;;;-5.74;92.64
70930;BME280;58588;48.102;19.682;2023-12-04T01:49:53;100293.06;;;-5.91;93.21
70930;BME280;58588;48.102;19.682;2023-12-04T01:52:56;100290.44;;;-5.71;92.89
70930;BME280;58588;48.102;19.682;2023-12-04T01:55:58;100285.13;;;-5.70;92.85
70930;BME280;58588;48.102;19.682;2023-12-04T01:59:00;100287.56;;;-5.65;92.52
70930;BME280;58588;48.102;19.682;2023-12-04T02:02:04;100275.31;;;-5.86;92.37
70930;BME280;58588;48.102;19.682;2023-12-04T02:05:07;100278.13;;;-5.69;93.41
70930;BME280;58588;48.102;19.682;2023-12-04T02:08:11;100289.06;;;-5.59;92.75
70930;BME280;58588;48.102;19.682;2023-12-04T02:11:13;100279.16;;;-5.73;91.76
70930;BME280;58588;48.102;19.682;2023-12-04T02:14:15;100279.16;;;-5.94;91.43
70930;BME280;58588;48.102;19.682;2023-12-04T02:17:17;100291.78;;;-6.03;91.09
70930;BME280;58588;48.102;19.682;2023-12-04T02:20:20;100295.75;;;-5.93;90.87
70930;BME280;58588;48.102;19.682;2023-12-04T02:23:23;100297.22;;;-6.08;91.43
70930;BME280;58588;48.102;19.682;2023-12-04T02:26:29;100292.13;;;-6.12;90.82
70930;BME280;58588;48.102;19.682;2023-12-04T02:29:38;100309.06;;;-6.20;91.25
70930;BME280;58588;48.102;19.682;2023-12-04T02:32:44;100298.69;;;-6.23;90.06
70930;BME280;58588;48.102;19.682;2023-12-04T02:35:47;100285.50;;;-6.21;91.11
70930;BME280;58588;48.102;19.682;2023-12-04T02:38:49;100292.84;;;-6.29;90.47
70930;BME280;58588;48.102;19.682;2023-12-04T02:41:53;100296.09;;;-6.24;90.23
70930;BME280;58588;48.102;19.682;2023-12-04T02:44:55;100288.00;;;-6.18;90.87
70930;BME280;58588;48.102;19.682;2023-12-04T02:47:57;100291.28;;;-6.13;90.10
70930;BME280;58588;48.102;19.682;2023-12-04T02:50:59;100296.75;;;-6.17;90.40
70930;BME280;58588;48.102;19.682;2023-12-04T02:54:00;100291.28;;;-6.13;90.62
70930;BME280;58588;48.102;19.682;2023-12-04T02:57:04;100299.38;;;-6.17;91.03
70930;BME280;58588;48.102;19.682;2023-12-04T03:00:11;100308.97;;;-6.18;92.19
70930;BME280;58588;48.102;19.682;2023-12-04T03:03:16;100300.34;;;-5.98;92.23
70930;BME280;58588;48.102;19.682;2023-12-04T03:06:18;100299.16;;;-6.13;92.36
70930;BME280;58588;48.102;19.682;2023-12-04T03:09:20;100295.50;;;-6.09;92.37
70930;BME280;58588;48.102;19.682;2023-12-04T03:12:23;100303.06;;;-6.01;91.39
70930;BME280;58588;48.102;19.682;2023-12-04T03:15:25;100304.13;;;-6.05;91.39
70930;BME280;58588;48.102;19.682;2023-12-04T03:18:29;100316.13;;;-6.22;91.29
70930;BME280;58588;48.102;19.682;2023-12-04T03:21:30;100317.34;;;-6.30;90.69
70930;BME280;58588;48.102;19.682;2023-12-04T03:24:32;100317.53;;;-6.13;91.18
70930;BME280;58588;48.102;19.682;2023-12-04T03:27:36;100312.19;;;-6.10;91.66
70930;BME280;58588;48.102;19.682;2023-12-04T03:30:38;100306.78;;;-6.07;91.43
70930;BME280;58588;48.102;19.682;2023-12-04T03:33:40;100312.59;;;-5.99;92.42
70930;BME280;58588;48.102;19.682;2023-12-04T03:36:41;100308.63;;;-5.88;92.79
70930;BME280;58588;48.102;19.682;2023-12-04T03:39:43;100312.53;;;-5.97;90.75
70930;BME280;58588;48.102;19.682;2023-12-04T03:42:47;100312.00;;;-6.05;90.91
70930;BME280;58588;48.102;19.682;2023-12-04T03:45:48;100319.56;;;-5.98;91.04
70930;BME280;58588;48.102;19.682;2023-12-04T03:48:50;100322.84;;;-5.93;90.81
70930;BME280;58588;48.102;19.682;2023-12-04T03:51:52;100321.84;;;-6.12;91.13
70930;BME280;58588;48.102;19.682;2023-12-04T03:54:54;100325.38;;;-6.11;90.84
70930;BME280;58588;48.102;19.682;2023-12-04T03:58:02;100336.66;;;-6.09;90.11
70930;BME280;58588;48.102;19.682;2023-12-04T04:01:05;100350.53;;;-6.29;90.04
70930;BME280;58588;48.102;19.682;2023-12-04T04:04:07;100356.91;;;-6.36;90.48
70930;BME280;58588;48.102;19.682;2023-12-04T04:07:09;100349.47;;;-6.47;89.23
70930;BME280;58588;48.102;19.682;2023-12-04T04:10:10;100354.34;;;-6.38;89.45
70930;BME280;58588;48.102;19.682;2023-12-04T04:13:14;100348.94;;;-6.33;89.21
70930;BME280;58588;48.102;19.682;2023-12-04T04:16:16;100342.38;;;-6.45;89.32
70930;BME280;58588;48.102;19.682;2023-12-04T04:19:17;100347.13;;;-6.55;89.83
70930;BME280;58588;48.102;19.682;2023-12-04T04:22:19;100349.63;;;-6.52;90.11
70930;BME280;58588;48.102;19.682;2023-12-04T04:25:21;100342.56;;;-6.50;89.19
70930;BME280;58588;48.102;19.682;2023-12-04T04:28:25;100346.72;;;-6.44;88.86
70930;BME280;58588;48.102;19.682;2023-12-04T04:31:30;100343.38;;;-6.48;89.28
70930;BME280;58588;48.102;19.682;2023-12-04T04:34:37;100339.66;;;-6.65;89.60
70930;BME280;58588;48.102;19.682;2023-12-04T04:37:39;100344.72;;;-6.61;90.62
70930;BME280;58588;48.102;19.682;2023-12-04T04:40:41;100330.59;;;-6.57;91.31
70930;BME280;58588;48.102;19.682;2023-12-04T04:43:46;100339.59;;;-6.40;90.58
70930;BME280;58588;48.102;19.682;2023-12-04T04:46:48;100336.84;;;-6.37;90.19
70930;BME280;58588;48.102;19.682;2023-12-04T04:49:50;100344.78;;;-6.39;90.52
70930;BME280;58588;48.102;19.682;2023-12-04T04:52:52;100343.88;;;-6.38;90.18
70930;BME280;58588;48.102;19.682;2023-12-04T04:55:54;100339.69;;;-6.67;89.67
70930;BME280;58588;48.102;19.682;2023-12-04T04:58:57;100340.84;;;-6.51;88.89
70930;BME280;58588;48.102;19.682;2023-12-04T05:01:59;100334.16;;;-6.36;90.09
70930;BME280;58588;48.102;19.682;2023-12-04T05:05:02;100336.84;;;-6.37;90.33
70930;BME280;58588;48.102;19.682;2023-12-04T05:08:04;100334.22;;;-6.37;89.57
70930;BME280;58588;48.102;19.682;2023-12-04T05:11:07;100332.44;;;-6.37;89.82
70930;BME280;58588;48.102;19.682;2023-12-04T05:14:10;100335.38;;;-6.44;90.15
70930;BME280;58588;48.102;19.682;2023-12-04T05:17:12;100346.78;;;-6.45;89.87
70930;BME280;58588;48.102;19.682;2023-12-04T05:20:14;100345.06;;;-6.47;88.97
70930;BME280;58588;48.102;19.682;2023-12-04T05:23:16;100346.38;;;-6.58;88.50
70930;BME280;58588;48.102;19.682;2023-12-04T05:26:17;100336.69;;;-6.56;89.26
70930;BME280;58588;48.102;19.682;2023-12-04T05:29:21;100333.72;;;-6.70;88.04
70930;BME280;58588;48.102;19.682;2023-12-04T05:32:23;100345.56;;;-6.60;88.44
70930;BME280;58588;48.102;19.682;2023-12-04T05:35:24;100342.38;;;-6.68;88.14
70930;BME280;58588;48.102;19.682;2023-12-04T05:38:26;100337.28;;;-6.96;87.60
70930;BME280;58588;48.102;19.682;2023-12-04T05:41:28;100341.41;;;-6.89;88.36
70930;BME280;58588;48.102;19.682;2023-12-04T05:44:33;100346.28;;;-7.04;89.03
70930;BME280;58588;48.102;19.682;2023-12-04T05:47:35;100343.00;;;-6.85;88.89
70930;BME280;58588;48.102;19.682;2023-12-04T05:50:37;100344.47;;;-6.78;89.15
70930;BME280;58588;48.102;19.682;2023-12-04T05:53:39;100349.31;;;-6.91;88.41
70930;BME280;58588;48.102;19.682;2023-12-04T05:56:40;100361.28;;;-6.84;89.12
70930;BME280;58588;48.102;19.682;2023-12-04T05:59:44;100355.16;;;-6.83;89.11
70930;BME280;58588;48.102;19.682;2023-12-04T06:02:46;100358.22;;;-6.95;87.71
70930;BME280;58588;48.102;19.682;2023-12-04T06:05:48;100358.69;;;-7.09;87.82
70930;BME280;58588;48.102;19.682;2023-12-04T06:08:50;100365.94;;;-7.42;87.26
70930;BME280;58588;48.102;19.682;2023-12-04T06:11:52;100364.47;;;-7.24;88.01
70930;BME280;58588;48.102;19.682;2023-12-04T06:14:55;100356.44;;;-7.19;87.63
70930;BME280;58588;48.102;19.682;2023-12-04T06:17:58;100356.25;;;-7.13;88.57
70930;BME280;58588;48.102;19.682;2023-12-04T06:21:00;100363.53;;;-7.23;88.26
70930;BME280;58588;48.102;19.682;2023-12-04T06:24:02;100366.81;;;-7.16;88.67
70930;BME280;58588;48.102;19.682;2023-12-04T06:27:06;100370.69;;;-7.02;88.21
70930;BME280;58588;48.102;19.682;2023-12-04T06:30:12;100376.53;;;-7.20;88.18
70930;BME280;58588;48.102;19.682;2023-12-04T06:33:15;100374.47;;;-7.10;88.15
70930;BME280;58588;48.102;19.682;2023-12-04T06:36:19;100369.00;;;-7.04;87.78
70930;BME280;58588;48.102;19.682;2023-12-04T06:39:22;100365.59;;;-7.06;87.94
70930;BME280;58588;48.102;19.682;2023-12-04T06:42:25;100353.75;;;-6.93;86.95
70930;BME280;58588;48.102;19.682;2023-12-04T06:45:29;100353.97;;;-6.99;87.40
70930;BME280;58588;48.102;19.682;2023-12-04T06:48:33;100354.19;;;-6.80;87.08
70930;BME280;58588;48.102;19.682;2023-12-04T06:51:35;100360.91;;;-6.73;87.18
70930;BME280;58588;48.102;19.682;2023-12-04T06:54:36;100361.41;;;-6.87;88.17
70930;BME280;58588;48.102;19.682;2023-12-04T06:57:38;100366.13;;;-6.73;88.15
70930;BME280;58588;48.102;19.682;2023-12-04T07:00:42;100361.22;;;-6.57;88.07
70930;BME280;58588;48.102;19.682;2023-12-04T07:03:43;100363.66;;;-6.53;88.73
70930;BME280;58588;48.102;19.682;2023-12-04T07:06:45;100363.69;;;-6.54;90.79
70930;BME280;58588;48.102;19.682;2023-12-04T07:09:47;100366.94;;;-6.24;91.16
70930;BME280;58588;48.102;19.682;2023-12-04T07:12:49;100367.81;;;-6.24;91.01
70930;BME280;58588;48.102;19.682;2023-12-04T07:15:52;100378.88;;;-6.15;90.42
70930;BME280;58588;48.102;19.682;2023-12-04T07:18:54;100386.25;;;-6.03;89.62
70930;BME280;58588;48.102;19.682;2023-12-04T07:21:56;100393.63;;;-6.13;89.76
70930;BME280;58588;48.102;19.682;2023-12-04T07:24:58;100395.22;;;-6.09;90.00
70930;BME280;58588;48.102;19.682;2023-12-04T07:28:00;100388.13;;;-5.85;90.28
70930;BME280;58588;48.102;19.682;2023-12-04T07:31:04;100387.59;;;-5.71;90.79
70930;BME280;58588;48.102;19.682;2023-12-04T07:34:06;100392.38;;;-5.81;90.60
70930;BME280;58588;48.102;19.682;2023-12-04T07:37:08;100387.94;;;-5.58;90.33
70930;BME280;58588;48.102;19.682;2023-12-04T07:40:11;100389.03;;;-5.64;90.86
70930;BME280;58588;48.102;19.682;2023-12-04T07:43:13;100396.91;;;-5.42;91.18
70930;BME280;58588;48.102;19.682;2023-12-04T07:46:17;100399.13;;;-5.53;91.57
70930;BME280;58588;48.102;19.682;2023-12-04T07:49:18;100412.47;;;-5.16;91.51
70930;BME280;58588;48.102;19.682;2023-12-04T07:52:20;100406.34;;;-5.16;91.16
70930;BME280;58588;48.102;19.682;2023-12-04T07:55:22;100403.00;;;-4.99;90.64
70930;BME280;58588;48.102;19.682;2023-12-04T07:58:24;100408.25;;;-4.99;90.74
70930;BME280;58588;48.102;19.682;2023-12-04T08:01:27;100406.34;;;-4.75;90.68
70930;BME280;58588;48.102;19.682;2023-12-04T08:04:29;100416.16;;;-4.79;91.10
70930;BME280;58588;48.102;19.682;2023-12-04T08:07:31;100409.56;;;-4.69;92.36
70930;BME280;58588;48.102;19.682;2023-12-04T08:10:33;100404.53;;;-4.34;91.46
70930;BME280;58588;48.102;19.682;2023-12-04T08:13:35;100415.53;;;-4.45;91.42
70930;BME280;58588;48.102;19.682;2023-12-04T08:16:39;100416.69;;;-4.32;92.77
70930;BME280;58588;48.102;19.682;2023-12-04T08:19:41;100421.97;;;-4.32;92.29
70930;BME280;58588;48.102;19.682;2023-12-04T08:22:43;100420.91;;;-4.09;91.94
70930;BME280;58588;48.102;19.682;2023-12-04T08:25:45;100423.97;;;-3.99;93.80
70930;BME280;58588;48.102;19.682;2023-12-04T08:28:47;100432.16;;;-3.86;93.33
70930;BME280;58588;48.102;19.682;2023-12-04T08:31:51;100429.84;;;-3.56;91.70
70930;BME280;58588;48.102;19.682;2023-12-04T08:34:53;100423.78;;;-3.39;92.35
70930;BME280;58588;48.102;19.682;2023-12-04T08:37:55;100426.66;;;-3.27;91.90
70930;BME280;58588;48.102;19.682;2023-12-04T08:40:56;100424.50;;;-3.36;92.82
70930;BME280;58588;48.102;19.682;2023-12-04T08:43:59;100419.53;;;-3.07;93.53
70930;BME280;58588;48.102;19.682;2023-12-04T08:47:03;100414.09;;;-3.21;92.46
70930;BME280;58588;48.102;19.682;2023-12-04T08:50:05;100414.88;;;-3.02;93.45
70930;BME280;58588;48.102;19.682;2023-12-04T08:53:08;100415.50;;;-2.97;92.95
70930;BME280;58588;48.102;19.682;2023-12-04T08:56:15;100417.63;;;-2.86;92.01
70930;BME280;58588;48.102;19.682;2023-12-04T08:59:18;100423.19;;;-3.10;92.52
70930;BME280;58588;48.102;19.682;2023-12-04T09:02:22;100419.53;;;-2.55;92.78
70930;BME280;58588;48.102;19.682;2023-12-04T09:05:24;100414.69;;;-2.47;92.96
70930;BME280;58588;48.102;19.682;2023-12-04T09:08:26;100416.97;;;-2.57;91.55
70930;BME280;58588;48.102;19.682;2023-12-04T09:11:28;100416.66;;;-2.51;92.99
70930;BME280;58588;48.102;19.682;2023-12-04T09:14:30;100422.28;;;-2.08;91.56
70930;BME280;58588;48.102;19.682;2023-12-04T09:17:33;100422.63;;;-1.98;91.21
70930;BME280;58588;48.102;19.682;2023-12-04T09:20:35;100412.84;;;-1.65;90.76
70930;BME280;58588;48.102;19.682;2023-12-04T09:23:37;100410.72;;;-1.42;89.80
70930;BME280;58588;48.102;19.682;2023-12-04T09:26:39;100402.72;;;-1.26;88.89
70930;BME280;58588;48.102;19.682;2023-12-04T09:29:41;100398.81;;;-1.19;88.65
70930;BME280;58588;48.102;19.682;2023-12-04T09:32:44;100398.34;;;-0.82;89.17
70930;BME280;58588;48.102;19.682;2023-12-04T09:35:46;100404.31;;;-0.78;89.15
70930;BME280;58588;48.102;19.682;2023-12-04T09:38:48;100401.53;;;-0.46;88.18
70930;BME280;58588;48.102;19.682;2023-12-04T09:41:50;100404.47;;;-0.22;89.00
70930;BME280;58588;48.102;19.682;2023-12-04T09:44:52;100399.63;;;0.13;87.47
70930;BME280;58588;48.102;19.682;2023-12-04T09:47:56;100392.41;;;0.56;86.09
70930;BME280;58588;48.102;19.682;2023-12-04T09:50:59;100390.25;;;0.88;84.99
70930;BME280;58588;48.102;19.682;2023-12-04T09:54:02;100385.94;;;1.00;83.82
70930;BME280;58588;48.102;19.682;2023-12-04T09:57:05;100376.81;;;0.91;83.76
70930;BME280;58588;48.102;19.682;2023-12-04T10:00:10;100376.53;;;1.21;84.88
70930;BME280;58588;48.102;19.682;2023-12-04T10:03:14;100364.72;;;1.13;85.88
70930;BME280;58588;48.102;19.682;2023-12-04T10:06:17;100360.34;;;0.99;85.31
70930;BME280;58588;48.102;19.682;2023-12-04T10:09:19;100363.13;;;0.97;83.08
70930;BME280;58588;48.102;19.682;2023-12-04T10:12:22;100357.06;;;0.56;83.44
70930;BME280;58588;48.102;19.682;2023-12-04T10:15:24;100357.53;;;0.75;83.72
70930;BME280;58588;48.102;19.682;2023-12-04T10:18:31;100351.44;;;1.00;84.80
70930;BME280;58588;48.102;19.682;2023-12-04T10:21:33;100341.34;;;1.05;83.98
70930;BME280;58588;48.102;19.682;2023-12-04T10:24:37;100339.00;;;1.13;84.42
70930;BME280;58588;48.102;19.682;2023-12-04T10:27:39;100342.00;;;1.59;81.83
70930;BME280;58588;48.102;19.682;2023-12-04T10:30:41;100335.81;;;1.72;82.71
70930;BME280;58588;48.102;19.682;2023-12-04T10:33:45;100332.44;;;2.06;80.64
70930;BME280;58588;48.102;19.682;2023-12-04T10:36:49;100311.75;;;2.23;78.83
70930;BME280;58588;48.102;19.682;2023-12-04T10:39:51;100316.38;;;2.32;80.19
70930;BME280;58588;48.102;19.682;2023-12-04T10:43:11;100305.94;;;2.18;80.87
70930;BME280;58588;48.102;19.682;2023-12-04T10:46:14;100307.28;;;2.47;80.45
70930;BME280;58588;48.102;19.682;2023-12-04T10:49:18;100310.22;;;2.31;79.62
70930;BME280;58588;48.102;19.682;2023-12-04T10:52:21;100299.69;;;2.30;80.46
70930;BME280;58588;48.102;19.682;2023-12-04T10:55:22;100309.41;;;2.66;79.65
70930;BME280;58588;48.102;19.682;2023-12-04T10:58:26;100302.34;;;2.54;80.60
70930;BME280;58588;48.102;19.682;2023-12-04T11:01:30;100302.69;;;2.84;79.07
70930;BME280;58588;48.102;19.682;2023-12-04T11:04:36;100301.44;;;3.12;78.51
70930;BME280;58588;48.102;19.682;2023-12-04T11:07:40;100296.47;;;3.08;78.58
70930;BME280;58588;48.102;19.682;2023-12-04T11:10:47;100290.09;;;2.86;79.22
70930;BME280;58588;48.102;19.682;2023-12-04T11:13:54;100293.09;;;2.71;78.86
70930;BME280;58588;48.102;19.682;2023-12-04T11:17:02;100291.22;;;2.84;80.54
70930;BME280;58588;48.102;19.682;2023-12-04T11:20:14;100288.66;;;2.82;80.54
70930;BME280;58588;48.102;19.682;2023-12-04T11:23:18;100286.88;;;2.94;80.28
70930;BME280;58588;48.102;19.682;2023-12-04T11:26:21;100281.38;;;2.73;78.48
70930;BME280;58588;48.102;19.682;2023-12-04T11:29:24;100277.84;;;3.19;80.16
70930;BME280;58588;48.102;19.682;2023-12-04T11:32:28;100276.75;;;3.21;79.62
70930;BME280;58588;48.102;19.682;2023-12-04T11:36:09;100282.56;;;3.27;79.67
70930;BME280;58588;48.102;19.682;2023-12-04T11:39:12;100269.47;;;3.01;79.73
70930;BME280;58588;48.102;19.682;2023-12-04T11:42:18;100278.81;;;3.18;79.20
70930;BME280;58588;48.102;19.682;2023-12-04T11:45:20;100278.53;;;3.10;79.19
70930;BME280;58588;48.102;19.682;2023-12-04T11:48:23;100269.34;;;3.14;79.82
70930;BME280;58588;48.102;19.682;2023-12-04T11:51:49;100260.63;;;3.45;78.70
70930;BME280;58588;48.102;19.682;2023-12-04T11:55:02;100260.63;;;3.57;75.69
70930;BME280;58588;48.102;19.682;2023-12-04T11:58:08;100240.63;;;3.17;74.50
70930;BME280;58588;48.102;19.682;2023-12-04T12:01:11;100236.19;;;3.07;77.52
70930;BME280;58588;48.102;19.682;2023-12-04T12:04:15;100230.84;;;3.29;76.00
70930;BME280;58588;48.102;19.682;2023-12-04T12:07:19;100218.97;;;3.56;76.19
70930;BME280;58588;48.102;19.682;2023-12-04T12:10:22;100211.28;;;3.85;75.54
70930;BME280;58588;48.102;19.682;2023-12-04T12:13:24;100207.78;;;4.16;75.62
70930;BME280;58588;48.102;19.682;2023-12-04T12:16:27;100214.09;;;4.36;72.96
70930;BME280;58588;48.102;19.682;2023-12-04T12:19:29;100205.09;;;4.16;74.12
70930;BME280;58588;48.102;19.682;2023-12-04T12:22:35;100203.59;;;4.02;74.82
70930;BME280;58588;48.102;19.682;2023-12-04T12:25:38;100195.19;;;4.07;75.03
70930;BME280;58588;48.102;19.682;2023-12-04T12:28:40;100197.72;;;4.20;73.98
70930;BME280;58588;48.102;19.682;2023-12-04T12:31:41;100195.59;;;4.23;74.43
70930;BME280;58588;48.102;19.682;2023-12-04T12:34:43;100194.94;;;4.10;76.26
70930;BME280;58588;48.102;19.682;2023-12-04T12:37:47;100198.19;;;3.70;77.50
70930;BME280;58588;48.102;19.682;2023-12-04T12:40:49;100199.38;;;3.89;75.92
70930;BME280;58588;48.102;19.682;2023-12-04T12:44:18;100198.19;;;3.82;73.97
70930;BME280;58588;48.102;19.682;2023-12-04T12:47:19;100194.34;;;4.07;74.50
70930;BME280;58588;48.102;19.682;2023-12-04T12:50:21;100187.97;;;3.98;73.31
70930;BME280;58588;48.102;19.682;2023-12-04T12:53:25;100183.78;;;3.84;74.57
70930;BME280;58588;48.102;19.682;2023-12-04T12:56:26;100176.03;;;3.70;73.74
70930;BME280;58588;48.102;19.682;2023-12-04T12:59:29;100168.31;;;3.56;74.58
70930;BME280;58588;48.102;19.682;2023-12-04T13:02:34;100164.38;;;3.71;74.77
70930;BME280;58588;48.102;19.682;2023-12-04T13:05:36;100158.09;;;3.72;73.44
70930;BME280;58588;48.102;19.682;2023-12-04T13:08:40;100147.94;;;3.66;73.71
70930;BME280;58588;48.102;19.682;2023-12-04T13:11:42;100144.75;;;3.17;74.05
70930;BME280;58588;48.102;19.682;2023-12-04T13:14:43;100146.81;;;3.36;77.62
70930;BME280;58588;48.102;19.682;2023-12-04T13:17:45;100143.06;;;3.71;75.38
70930;BME280;58588;48.102;19.682;2023-12-04T13:20:47;100144.72;;;3.40;76.02
70930;BME280;58588;48.102;19.682;2023-12-04T13:23:50;100138.31;;;3.42;78.28
70930;BME280;58588;48.102;19.682;2023-12-04T13:26:52;100132.22;;;3.52;78.91
70930;BME280;58588;48.102;19.682;2023-12-04T13:29:54;100147.47;;;3.61;77.41
70930;BME280;58588;48.102;19.682;2023-12-04T13:32:56;100147.50;;;3.38;77.87
70930;BME280;58588;48.102;19.682;2023-12-04T13:35:58;100150.66;;;3.43;79.03
70930;BME280;58588;48.102;19.682;2023-12-04T13:39:01;100138.47;;;3.18;78.76
70930;BME280;58588;48.102;19.682;2023-12-04T13:42:04;100135.47;;;3.01;79.42
70930;BME280;58588;48.102;19.682;2023-12-04T13:45:26;100141.75;;;2.77;79.77
70930;BME280;58588;48.102;19.682;2023-12-04T13:48:28;100140.25;;;2.62;80.46
70930;BME280;58588;48.102;19.682;2023-12-04T13:51:30;100139.88;;;2.44;81.35
70930;BME280;58588;48.102;19.682;2023-12-04T13:54:33;100138.28;;;2.30;80.98
70930;BME280;58588;48.102;19.682;2023-12-04T13:57:44;100147.06;;;2.20;82.25
70930;BME280;58588;48.102;19.682;2023-12-04T14:01:01;100142.28;;;2.01;82.76
70930;BME280;58588;48.102;19.682;2023-12-04T14:04:13;100134.63;;;2.20;82.18
70930;BME280;58588;48.102;19.682;2023-12-04T14:07:15;100143.88;;;2.03;81.87
70930;BME280;58588;48.102;19.682;2023-12-04T14:10:19;100136.13;;;2.00;82.72
70930;BME280;58588;48.102;19.682;2023-12-04T14:13:21;100140.31;;;1.92;83.76
70930;BME280;58588;48.102;19.682;2023-12-04T14:16:23;100145.59;;;2.15;83.96
70930;BME280;58588;48.102;19.682;2023-12-04T14:19:25;100142.47;;;2.22;83.51
70930;BME280;58588;48.102;19.682;2023-12-04T14:22:27;100140.63;;;1.76;82.79
70930;BME280;58588;48.102;19.682;2023-12-04T14:25:30;100149.31;;;2.02;83.67
70930;BME280;58588;48.102;19.682;2023-12-04T14:28:32;100141.31;;;2.02;83.03
70930;BME280;58588;48.102;19.682;2023-12-04T14:31:34;100148.41;;;1.90;84.83
70930;BME280;58588;48.102;19.682;2023-12-04T14:34:36;100147.94;;;1.96;84.00
70930;BME280;58588;48.102;19.682;2023-12-04T14:37:39;100152.94;;;1.77;83.25
70930;BME280;58588;48.102;19.682;2023-12-04T14:40:43;100147.06;;;1.60;83.15
70930;BME280;58588;48.102;19.682;2023-12-04T14:43:46;100148.72;;;1.74;83.51
70930;BME280;58588;48.102;19.682;2023-12-04T14:46:48;100136.16;;;1.52;83.64
70930;BME280;58588;48.102;19.682;2023-12-04T14:49:50;100138.81;;;1.52;84.74
70930;BME280;58588;48.102;19.682;2023-12-04T14:52:59;100136.16;;;1.52;85.40
70930;BME280;58588;48.102;19.682;2023-12-04T14:56:16;100140.38;;;1.55;85.57
70930;BME280;58588;48.102;19.682;2023-12-04T14:59:29;100144.66;;;1.57;84.99
70930;BME280;58588;48.102;19.682;2023-12-04T15:02:57;100136.78;;;1.32;85.09
70930;BME280;58588;48.102;19.682;2023-12-04T15:06:36;100132.41;;;1.31;85.28
70930;BME280;58588;48.102;19.682;2023-12-04T15:09:57;100138.44;;;0.84;86.88
70930;BME280;58588;48.102;19.682;2023-12-04T15:13:42;100138.75;;;1.04;87.05
70930;BME280;58588;48.102;19.682;2023-12-04T15:16:55;100131.75;;;1.03;86.73
70930;BME280;58588;48.102;19.682;2023-12-04T15:20:05;100124.94;;;0.99;87.27
70930;BME280;58588;48.102;19.682;2023-12-04T15:23:33;100123.72;;;0.79;88.55
70930;BME280;58588;48.102;19.682;2023-12-04T15:26:35;100120.44;;;0.50;88.30
70930;BME280;58588;48.102;19.682;2023-12-04T15:29:37;100110.47;;;0.54;88.39
70930;BME280;58588;48.102;19.682;2023-12-04T15:32:41;100120.75;;;0.59;89.02
70930;BME280;58588;48.102;19.682;2023-12-04T15:35:42;100118.94;;;0.72;89.15
70930;BME280;58588;48.102;19.682;2023-12-04T15:38:43;100118.44;;;0.67;89.53
70930;BME280;58588;48.102;19.682;2023-12-04T15:41:45;100117.91;;;0.49;90.03
70930;BME280;58588;48.102;19.682;2023-12-04T15:44:49;100120.03;;;0.57;89.85
70930;BME280;58588;48.102;19.682;2023-12-04T15:47:49;100124.88;;;0.75;89.00
70930;BME280;58588;48.102;19.682;2023-12-04T15:50:51;100125.97;;;0.73;89.00